Time;durP1;ratioP1;P1;durP2;ratioP2;P2;SDS_P1;SDS_P2;PMS_P1;PMS_P2;Temp;Humidity;BMP_temperature;BMP_pressure;BME280_temperature;BME280_humidity;BME280_pressure;Samples;Min_cycle;Max_cycle;Signal;HPM_P1;HPM_P2
2023/09/21 00:01:07;;;;;;;0.20;0.20;;;;;;;16.25;100.00;94808.00;5053958;28;20203;-73
2023/09/21 00:03:35;;;;;;;0.20;0.20;;;;;;;16.38;100.00;94799.66;5053482;28;20302;-73
2023/09/21 00:06:03;;;;;;;0.13;0.13;;;;;;;16.29;100.00;94797.91;5050179;28;20451;-72
2023/09/21 00:08:32;;;;;;;0.20;0.20;;;;;;;16.26;100.00;94793.16;5050131;28;20207;-72
2023/09/21 00:10:59;;;;;;;0.20;0.20;;;;;;;16.39;100.00;94803.97;5050209;28;20609;-72
2023/09/21 00:13:28;;;;;;;0.20;0.20;;;;;;;16.44;100.00;94798.19;5049690;28;20243;-72
2023/09/21 00:15:56;;;;;;;0.10;0.10;;;;;;;16.59;100.00;94789.13;5050333;28;20203;-72
2023/09/21 00:18:23;;;;;;;0.13;0.13;;;;;;;16.72;100.00;94793.31;5050301;28;20208;-72
2023/09/21 00:20:52;;;;;;;0.32;0.17;;;;;;;16.83;100.00;94799.75;5049923;28;20218;-73
2023/09/21 00:23:21;;;;;;;0.25;0.25;;;;;;;16.90;100.00;94808.13;5049887;28;20211;-72
2023/09/21 00:25:49;;;;;;;0.40;0.40;;;;;;;16.69;100.00;94799.50;5049707;28;20231;-72
2023/09/21 00:28:19;;;;;;;0.52;0.52;;;;;;;16.51;100.00;94803.81;5050272;28;20265;-72
2023/09/21 00:30:46;;;;;;;0.22;0.22;;;;;;;16.52;100.00;94816.34;5053512;28;20584;-72
2023/09/21 00:33:12;;;;;;;0.38;0.38;;;;;;;16.54;100.00;94814.00;5053916;28;20226;-73
2023/09/21 00:35:39;;;;;;;0.10;0.10;;;;;;;16.55;100.00;94812.88;5053984;28;20206;-72
2023/09/21 00:38:08;;;;;;;0.20;0.20;;;;;;;16.55;100.00;94818.34;5053944;28;20218;-73
2023/09/21 00:40:38;;;;;;;0.20;0.20;;;;;;;16.61;100.00;94831.38;5053068;28;20219;-71
2023/09/21 00:43:09;;;;;;;0.20;0.20;;;;;;;16.68;100.00;94830.75;5053673;28;20217;-72
2023/09/21 00:45:37;;;;;;;0.40;0.40;;;;;;;16.70;100.00;94833.91;5053330;28;20215;-71
2023/09/21 00:48:09;;;;;;;0.20;0.20;;;;;;;16.76;100.00;94831.69;5053645;28;20199;-73
2023/09/21 00:50:36;;;;;;;0.20;0.20;;;;;;;16.72;100.00;94837.06;5053023;28;20277;-72
2023/09/21 00:53:05;;;;;;;0.15;0.15;;;;;;;16.67;100.00;94834.66;5054247;28;20216;-72
2023/09/21 00:55:39;;;;;;;0.10;0.10;;;;;;;16.72;100.00;94839.81;5053327;28;20303;-72
2023/09/21 00:58:09;;;;;;;0.22;0.22;;;;;;;16.76;100.00;94837.16;5053533;28;20214;-73
2023/09/21 01:00:39;;;;;;;0.30;0.30;;;;;;;16.81;100.00;94828.66;5053125;28;20603;-73
2023/09/21 01:03:11;;;;;;;0.50;0.50;;;;;;;16.97;100.00;94835.59;5045602;28;20618;-72
2023/09/21 01:05:39;;;;;;;0.10;0.10;;;;;;;17.00;100.00;94814.94;5052842;28;20216;-73
2023/09/21 01:08:09;;;;;;;0.20;0.20;;;;;;;17.10;100.00;94813.53;5053677;28;20218;-73
2023/09/21 01:10:38;;;;;;;0.40;0.40;;;;;;;17.18;100.00;94820.72;5040543;28;20619;-72
2023/09/21 01:13:07;;;;;;;0.40;0.40;;;;;;;17.22;100.00;94805.16;5052881;28;20330;-73
2023/09/21 01:15:33;;;;;;;0.10;0.10;;;;;;;17.15;100.00;94794.88;5053130;28;20624;-73
2023/09/21 01:18:00;;;;;;;0.65;0.40;;;;;;;17.17;100.00;94799.97;5052939;28;20302;-73
2023/09/21 01:20:30;;;;;;;0.30;0.30;;;;;;;17.08;100.00;94799.44;5052862;28;20215;-73
2023/09/21 01:23:08;;;;;;;1.00;0.63;;;;;;;17.14;100.00;94801.50;5053195;28;20208;-73
2023/09/21 01:25:39;;;;;;;0.80;0.80;;;;;;;17.21;100.00;94798.09;5052745;28;20578;-72
2023/09/21 01:28:06;;;;;;;1.42;0.98;;;;;;;17.25;100.00;94785.25;5053350;28;20273;-72
2023/09/21 01:30:34;;;;;;;0.10;0.10;;;;;;;17.28;100.00;94790.00;5052825;28;20610;-72
2023/09/21 01:33:04;;;;;;;0.35;0.35;;;;;;;16.99;100.00;94781.28;5053174;28;20573;-73
2023/09/21 01:35:31;;;;;;;0.50;0.50;;;;;;;16.84;100.00;94789.63;5052750;28;20208;-72
2023/09/21 01:37:59;;;;;;;0.25;0.25;;;;;;;16.85;100.00;94777.50;5052968;28;20215;-73
2023/09/21 01:40:25;;;;;;;0.70;0.52;;;;;;;16.91;100.00;94781.53;5051446;28;20211;-73
2023/09/21 01:42:53;;;;;;;0.10;0.10;;;;;;;16.88;100.00;94774.84;5052609;28;20203;-72
2023/09/21 01:45:20;;;;;;;0.20;0.20;;;;;;;16.89;100.00;94779.16;5052642;28;20261;-73
2023/09/21 01:47:47;;;;;;;0.20;0.20;;;;;;;16.81;100.00;94771.97;5052454;28;20222;-72
2023/09/21 01:50:15;;;;;;;0.20;0.20;;;;;;;16.92;100.00;94770.25;5052103;28;20215;-72
2023/09/21 01:52:42;;;;;;;0.10;0.10;;;;;;;16.82;100.00;94765.34;5052610;28;20214;-72
2023/09/21 01:55:10;;;;;;;0.70;0.70;;;;;;;16.85;100.00;94769.31;5052808;28;20661;-73
2023/09/21 01:57:37;;;;;;;0.73;0.73;;;;;;;16.79;100.00;94766.09;5052256;28;20216;-72
2023/09/21 02:00:12;;;;;;;0.32;0.32;;;;;;;16.83;100.00;94766.13;5052247;28;20648;-73
2023/09/21 02:02:39;;;;;;;0.32;0.32;;;;;;;16.88;100.00;94747.47;5060734;28;20318;-72
2023/09/21 02:05:10;;;;;;;0.47;0.47;;;;;;;16.82;100.00;94743.47;5052511;28;20215;-72
2023/09/21 02:07:37;;;;;;;0.10;0.10;;;;;;;16.93;100.00;94744.47;5052072;28;20215;-72
2023/09/21 02:10:10;;;;;;;0.35;0.35;;;;;;;17.00;100.00;94738.28;5052287;28;20297;-73
2023/09/21 02:12:37;;;;;;;0.20;0.20;;;;;;;16.94;100.00;94732.34;5052050;28;20703;-73
2023/09/21 02:15:10;;;;;;;0.50;0.50;;;;;;;17.04;100.00;94728.22;5052319;28;20254;-74
2023/09/21 02:17:38;;;;;;;0.70;0.70;;;;;;;17.00;100.00;94727.34;5051916;28;20232;-74
2023/09/21 02:20:13;;;;;;;0.20;0.20;;;;;;;16.89;100.00;94716.22;5052291;28;20211;-73
2023/09/21 02:22:40;;;;;;;0.32;0.32;;;;;;;16.78;100.00;94720.72;5052062;28;20333;-73
2023/09/21 02:25:11;;;;;;;0.47;0.47;;;;;;;16.64;100.00;94718.53;5051865;28;20249;-73
2023/09/21 02:27:38;;;;;;;0.30;0.30;;;;;;;16.68;100.00;94715.84;5051933;28;20245;-72
2023/09/21 02:30:13;;;;;;;0.30;0.30;;;;;;;16.74;100.00;94708.94;5051414;28;20257;-73
2023/09/21 02:32:41;;;;;;;1.08;1.08;;;;;;;16.77;100.00;94727.34;5048500;28;20234;-74
2023/09/21 02:35:13;;;;;;;0.30;0.30;;;;;;;16.86;100.00;94727.91;5043446;28;20572;-72
2023/09/21 02:37:44;;;;;;;0.30;0.30;;;;;;;16.90;100.00;94728.75;5043604;28;20254;-73
2023/09/21 02:40:14;;;;;;;0.68;0.68;;;;;;;16.88;100.00;94725.59;5041636;28;20241;-72
2023/09/21 02:42:42;;;;;;;0.35;0.35;;;;;;;16.86;100.00;94733.38;5044798;28;20275;-73
2023/09/21 02:45:12;;;;;;;0.20;0.20;;;;;;;16.78;100.00;94736.38;5047000;28;20208;-72
2023/09/21 02:47:41;;;;;;;0.38;0.32;;;;;;;16.71;100.00;94737.00;5039057;28;20335;-72
2023/09/21 02:50:15;;;;;;;0.30;0.28;;;;;;;16.63;100.00;94747.03;5051255;28;20265;-72
2023/09/21 02:52:47;;;;;;;0.10;0.10;;;;;;;16.61;100.00;94738.38;5050996;28;20210;-72
2023/09/21 02:55:18;;;;;;;1.00;0.57;;;;;;;16.55;100.00;94728.09;5051649;28;20219;-72
2023/09/21 02:57:47;;;;;;;0.20;0.20;;;;;;;16.54;100.00;94731.97;5051152;28;20636;-73
2023/09/21 03:00:21;;;;;;;0.20;0.20;;;;;;;16.49;100.00;94738.53;5051432;28;20204;-73
2023/09/21 03:02:49;;;;;;;0.47;0.47;;;;;;;16.56;100.00;94737.88;5048057;28;20203;-72
2023/09/21 03:05:17;;;;;;;0.15;0.15;;;;;;;16.43;100.00;94728.25;5050982;28;20314;-72
2023/09/21 03:07:45;;;;;;;0.20;0.20;;;;;;;16.35;100.00;94736.31;5057311;28;20322;-73
2023/09/21 03:10:13;;;;;;;0.38;0.38;;;;;;;16.34;100.00;94742.16;5050673;28;20210;-72
2023/09/21 03:12:40;;;;;;;0.32;0.32;;;;;;;16.30;100.00;94744.03;5050186;28;20239;-74
2023/09/21 03:15:13;;;;;;;0.50;0.50;;;;;;;16.33;100.00;94744.09;5050832;28;20276;-72
2023/09/21 03:17:42;;;;;;;0.50;0.45;;;;;;;16.26;100.00;94743.19;5050260;28;20195;-74
2023/09/21 03:20:12;;;;;;;0.15;0.15;;;;;;;16.32;100.00;94741.72;5053262;28;20215;-72
2023/09/21 03:22:40;;;;;;;0.10;0.10;;;;;;;16.33;100.00;94746.84;5050264;28;20200;-73
2023/09/21 03:25:11;;;;;;;0.20;0.20;;;;;;;16.38;100.00;94755.91;5050897;28;20621;-73
2023/09/21 03:27:39;;;;;;;1.45;0.40;;;;;;;16.32;100.00;94758.91;5049517;28;20227;-74
2023/09/21 03:30:11;;;;;;;0.20;0.20;;;;;;;16.32;100.00;94758.91;5050947;28;20583;-72
2023/09/21 03:32:40;;;;;;;1.45;0.40;;;;;;;16.23;100.00;94755.63;5046817;28;20211;-74
2023/09/21 03:35:11;;;;;;;0.10;0.10;;;;;;;16.29;100.00;94756.09;5044473;28;20242;-73
2023/09/21 03:37:41;;;;;;;0.20;0.20;;;;;;;16.33;100.00;94755.03;5048530;28;20551;-73
2023/09/21 03:40:09;;;;;;;0.45;0.45;;;;;;;16.36;100.00;94742.59;5045124;28;20568;-73
2023/09/21 03:42:36;;;;;;;0.30;0.30;;;;;;;16.23;100.00;94747.41;5049405;28;20305;-73
2023/09/21 03:45:04;;;;;;;0.57;0.57;;;;;;;16.27;100.00;94745.53;5043313;28;20575;-72
2023/09/21 03:47:30;;;;;;;0.20;0.20;;;;;;;16.28;100.00;94752.56;5047175;28;20456;-72
2023/09/21 03:49:58;;;;;;;0.68;0.68;;;;;;;16.30;100.00;94733.88;5045541;28;20222;-73
2023/09/21 03:52:27;;;;;;;0.20;0.20;;;;;;;16.21;100.00;94741.53;5048664;28;20219;-72
2023/09/21 03:54:54;;;;;;;0.10;0.10;;;;;;;16.17;100.00;94737.91;5041690;28;20211;-72
2023/09/21 03:57:21;;;;;;;0.47;0.47;;;;;;;16.12;100.00;94743.69;5044281;28;20212;-72
2023/09/21 03:59:48;;;;;;;0.55;0.43;;;;;;;16.07;100.00;94743.97;5039632;28;20200;-71
2023/09/21 04:02:17;;;;;;;0.55;0.40;;;;;;;16.02;100.00;94741.50;5051772;28;20231;-72
2023/09/21 04:04:45;;;;;;;0.10;0.10;;;;;;;16.05;100.00;94743.53;5053366;28;20243;-74
2023/09/21 04:07:12;;;;;;;0.20;0.20;;;;;;;16.07;100.00;94738.50;5054496;28;20231;-73
2023/09/21 04:09:41;;;;;;;0.20;0.20;;;;;;;16.14;100.00;94746.03;5054279;28;20208;-73
2023/09/21 04:12:08;;;;;;;0.22;0.22;;;;;;;16.26;100.00;94743.19;5054345;28;20211;-75
2023/09/21 04:14:34;;;;;;;0.43;0.43;;;;;;;16.40;100.00;94753.59;5053999;28;20247;-73
2023/09/21 04:17:02;;;;;;;0.10;0.10;;;;;;;16.49;100.00;94754.16;5053985;28;20200;-73
2023/09/21 04:19:30;;;;;;;0.57;0.57;;;;;;;16.60;100.00;94752.41;5053897;28;20246;-74
2023/09/21 04:21:57;;;;;;;0.10;0.10;;;;;;;16.62;100.00;94755.59;5053935;28;20215;-73
2023/09/21 04:24:24;;;;;;;0.20;0.20;;;;;;;16.63;100.00;94752.50;5054225;28;20222;-73
2023/09/21 04:26:52;;;;;;;0.68;0.68;;;;;;;16.64;100.00;94754.09;5053562;28;20230;-73
2023/09/21 04:29:19;;;;;;;0.20;0.20;;;;;;;16.74;100.00;94763.66;5053958;28;20273;-73
2023/09/21 04:31:46;;;;;;;0.20;0.20;;;;;;;16.76;100.00;94761.34;5053596;28;20222;-74
2023/09/21 04:34:13;;;;;;;0.30;0.30;;;;;;;16.83;100.00;94758.72;5053903;28;20298;-74
2023/09/21 04:36:40;;;;;;;0.17;0.17;;;;;;;16.83;100.00;94752.47;5053985;28;20204;-73
2023/09/21 04:39:08;;;;;;;0.20;0.20;;;;;;;16.92;100.00;94748.34;5053922;28;20639;-73
2023/09/21 04:41:35;;;;;;;0.20;0.20;;;;;;;16.98;100.00;94735.91;5053574;28;20270;-74
2023/09/21 04:44:03;;;;;;;0.20;0.20;;;;;;;17.07;100.00;94735.69;5054065;28;20211;-73
2023/09/21 04:46:31;;;;;;;0.30;0.30;;;;;;;17.15;100.00;94739.31;5053552;28;20692;-73
2023/09/21 04:48:58;;;;;;;0.30;0.30;;;;;;;17.29;100.00;94736.81;5053448;28;20215;-73
2023/09/21 04:51:24;;;;;;;0.40;0.40;;;;;;;17.40;100.00;94740.50;5053571;28;20211;-74
2023/09/21 04:53:51;;;;;;;0.35;0.35;;;;;;;17.50;100.00;94737.13;5053582;28;20219;-73
2023/09/21 04:56:18;;;;;;;0.20;0.20;;;;;;;17.50;100.00;94745.34;5053510;28;20207;-73
2023/09/21 04:58:45;;;;;;;0.20;0.20;;;;;;;17.58;100.00;94752.53;5053464;28;20207;-73
2023/09/21 05:01:15;;;;;;;0.35;0.35;;;;;;;17.68;100.00;94749.19;5058493;28;20207;-73
2023/09/21 05:03:42;;;;;;;1.75;0.63;;;;;;;17.85;100.00;94752.53;5056493;28;20223;-73
2023/09/21 05:06:08;;;;;;;0.10;0.10;;;;;;;17.81;100.00;94754.44;5051964;28;20687;-73
2023/09/21 05:08:38;;;;;;;0.75;0.50;;;;;;;17.93;100.00;94752.25;5052133;28;20644;-73
2023/09/21 05:11:05;;;;;;;0.68;0.60;;;;;;;17.96;100.00;94745.25;5052904;28;20211;-75
2023/09/21 05:13:32;;;;;;;0.20;0.20;;;;;;;18.20;100.00;94755.75;5051887;28;20244;-75
2023/09/21 05:15:59;;;;;;;0.47;0.43;;;;;;;18.34;100.00;94766.09;5052628;28;20698;-72
2023/09/21 05:18:28;;;;;;;0.10;0.10;;;;;;;18.57;100.00;94763.25;5052700;28;20579;-72
2023/09/21 05:20:55;;;;;;;0.20;0.20;;;;;;;18.58;100.00;94764.84;5052632;28;20584;-73
2023/09/21 05:23:22;;;;;;;1.08;0.95;;;;;;;18.56;100.00;94756.19;5052387;28;20208;-72
2023/09/21 05:25:48;;;;;;;1.00;0.90;;;;;;;18.81;100.00;94762.75;5052724;28;20215;-72
2023/09/21 05:28:16;;;;;;;1.20;1.10;;;;;;;19.31;100.00;94760.47;5052103;28;20696;-74
2023/09/21 05:30:43;;;;;;;0.35;0.35;;;;;;;19.69;100.00;94757.25;5052388;28;20212;-73
2023/09/21 05:33:10;;;;;;;0.20;0.20;;;;;;;19.84;100.00;94747.94;5052541;28;20661;-74
2023/09/21 05:35:38;;;;;;;0.45;0.45;;;;;;;20.48;100.00;94737.28;5052645;28;20215;-72
2023/09/21 05:38:06;;;;;;;0.43;0.43;;;;;;;21.19;100.00;94731.94;5052592;28;20234;-72
2023/09/21 05:40:34;;;;;;;0.20;0.20;;;;;;;21.76;100.00;94731.91;5052816;28;20642;-72
2023/09/21 05:43:01;;;;;;;1.13;1.02;;;;;;;21.70;100.00;94738.22;5047379;28;20235;-72
2023/09/21 05:45:30;;;;;;;1.95;1.48;;;;;;;22.33;100.00;94731.78;5049121;28;20559;-73
2023/09/21 05:47:57;;;;;;;0.65;0.65;;;;;;;22.27;100.00;94736.97;5046816;28;20224;-73
2023/09/21 05:50:24;;;;;;;0.30;0.30;;;;;;;22.41;100.00;94733.34;5044407;28;20208;-72
2023/09/21 05:52:54;;;;;;;0.20;0.20;;;;;;;22.46;100.00;94734.91;5047791;28;20203;-76
2023/09/21 05:55:21;;;;;;;0.47;0.47;;;;;;;22.63;100.00;94729.31;5045533;28;20662;-74
2023/09/21 05:57:48;;;;;;;0.68;0.68;;;;;;;22.85;100.00;94735.50;5049514;28;20200;-72
2023/09/21 06:00:17;;;;;;;0.20;0.20;;;;;;;22.64;100.00;94735.63;5047876;28;20216;-72
2023/09/21 06:02:44;;;;;;;0.38;0.38;;;;;;;22.21;100.00;94726.72;5044360;28;20254;-72
2023/09/21 06:05:13;;;;;;;7.05;2.55;;;;;;;21.95;100.00;94739.75;5045350;28;20261;-73
2023/09/21 06:07:40;;;;;;;2.17;1.48;;;;;;;21.89;100.00;94754.34;5049356;28;20216;-74
2023/09/21 06:10:09;;;;;;;0.98;0.30;;;;;;;21.60;100.00;94748.06;5046756;28;20196;-73
2023/09/21 06:12:37;;;;;;;1.63;1.10;;;;;;;20.72;100.00;94752.28;5043474;28;20918;-73
2023/09/21 06:15:06;;;;;;;1.25;1.15;;;;;;;20.35;100.00;94758.03;5048896;28;20576;-72
2023/09/21 06:17:35;;;;;;;1.20;1.10;;;;;;;20.26;100.00;94762.28;5043543;28;20199;-73
2023/09/21 06:20:03;;;;;;;0.68;0.68;;;;;;;20.14;100.00;94761.47;5045474;28;20218;-73
2023/09/21 06:22:31;;;;;;;0.30;0.30;;;;;;;20.69;100.00;94764.06;5046382;28;20235;-72
2023/09/21 06:24:59;;;;;;;1.25;1.15;;;;;;;20.80;100.00;94761.34;5043267;28;20246;-72
2023/09/21 06:27:27;;;;;;;0.30;0.30;;;;;;;21.42;100.00;94752.81;5044919;28;20230;-72
2023/09/21 06:29:54;;;;;;;0.88;0.85;;;;;;;21.93;100.00;94757.91;5048511;28;20908;-72
2023/09/21 06:32:23;;;;;;;1.45;1.33;;;;;;;21.76;100.00;94748.47;5050379;28;20625;-75
2023/09/21 06:34:51;;;;;;;1.75;1.48;;;;;;;21.98;100.00;94750.00;5044203;28;20603;-74
2023/09/21 06:37:19;;;;;;;0.28;0.28;;;;;;;22.26;100.00;94748.38;5046812;28;20208;-73
2023/09/21 06:39:46;;;;;;;2.13;1.02;;;;;;;22.56;100.00;94747.84;5047479;28;20201;-72
2023/09/21 06:42:15;;;;;;;4.57;2.20;;;;;;;22.88;100.00;94740.25;5044121;28;20576;-72
2023/09/21 06:44:43;;;;;;;0.50;0.50;;;;;;;22.42;100.00;94737.66;5042418;28;20196;-73
2023/09/21 06:47:12;;;;;;;1.45;1.33;;;;;;;22.61;100.00;94748.25;5042913;28;20212;-74
2023/09/21 06:49:39;;;;;;;5.60;1.50;;;;;;;22.87;100.00;94740.63;5040423;28;20196;-76
2023/09/21 06:52:06;;;;;;;1.77;1.27;;;;;;;23.15;100.00;94743.22;5044828;28;20200;-74
2023/09/21 06:54:33;;;;;;;1.90;1.75;;;;;;;23.19;100.00;94732.94;5041103;28;20684;-75
2023/09/21 06:57:04;;;;;;;2.20;1.75;;;;;;;22.99;100.00;94740.16;5040147;28;20538;-75
2023/09/21 06:59:34;;;;;;;0.85;0.82;;;;;;;22.69;100.00;94749.78;5051231;28;20212;-74
2023/09/21 07:02:03;;;;;;;2.40;1.20;;;;;;;22.48;100.00;94747.13;5050909;28;20290;-73
2023/09/21 07:04:33;;;;;;;1.85;1.10;;;;;;;22.70;100.00;94745.81;5051787;28;20626;-73
2023/09/21 07:07:02;;;;;;;1.38;1.00;;;;;;;22.91;100.00;94744.19;5051978;28;20694;-74
2023/09/21 07:09:29;;;;;;;2.60;1.33;;;;;;;23.19;100.00;94743.22;5051060;28;20204;-74
2023/09/21 07:11:56;;;;;;;1.52;1.35;;;;;;;23.08;100.00;94735.00;5052057;28;20207;-75
2023/09/21 07:14:23;;;;;;;1.77;1.58;;;;;;;23.15;100.00;94737.69;5049949;28;20274;-72
2023/09/21 07:16:49;;;;;;;1.65;1.55;;;;;;;23.69;100.00;94741.66;5051028;28;20607;-72
2023/09/21 07:19:18;;;;;;;2.30;1.42;;;;;;;23.62;100.00;94740.94;5051118;28;20214;-72
2023/09/21 07:21:46;;;;;;;2.25;1.50;;;;;;;23.64;100.00;94742.06;5051053;28;20591;-73
2023/09/21 07:24:13;;;;;;;4.47;2.28;;;;;;;23.83;100.00;94745.47;5051581;28;20199;-74
2023/09/21 07:26:40;;;;;;;1.88;1.67;;;;;;;23.76;100.00;94749.13;5050938;28;20231;-75
2023/09/21 07:29:06;;;;;;;2.80;1.50;;;;;;;23.96;100.00;94752.84;5051270;28;20334;-73
2023/09/21 07:31:35;;;;;;;4.07;1.02;;;;;;;24.23;100.00;94753.00;5051033;28;20227;-73
2023/09/21 07:34:03;;;;;;;1.48;1.30;;;;;;;24.53;100.00;94745.94;5051031;28;20208;-73
2023/09/21 07:36:31;;;;;;;1.25;1.05;;;;;;;24.49;100.00;94754.28;5050829;28;20216;-74
2023/09/21 07:38:58;;;;;;;1.80;1.25;;;;;;;24.34;100.00;94758.41;5050688;28;20208;-74
2023/09/21 07:41:25;;;;;;;1.15;0.85;;;;;;;24.21;62.39;94757.34;5050797;28;20207;-73
2023/09/21 07:43:53;;;;;;;2.38;1.15;;;;;;;24.41;62.89;94766.66;5050660;28;20214;-73
2023/09/21 07:46:20;;;;;;;1.27;1.02;;;;;;;23.32;64.47;94774.72;5050786;28;20611;-73
2023/09/21 07:48:48;;;;;;;1.80;1.45;;;;;;;23.68;64.04;94766.94;5050698;28;20254;-72
2023/09/21 07:51:15;;;;;;;1.13;1.02;;;;;;;24.09;62.45;94755.91;5049629;28;20216;-73
2023/09/21 07:53:44;;;;;;;0.73;0.73;;;;;;;24.78;61.05;94758.28;5050606;28;20203;-73
2023/09/21 07:56:13;;;;;;;1.00;0.90;;;;;;;25.22;59.25;94759.31;5050987;28;20215;-73
2023/09/21 07:58:40;;;;;;;1.30;1.20;;;;;;;25.15;61.42;94748.31;5050688;28;20693;-73
2023/09/21 08:01:10;;;;;;;3.10;1.00;;;;;;;25.06;60.10;94750.81;5050819;28;20211;-74
2023/09/21 08:03:37;;;;;;;2.63;1.55;;;;;;;24.32;62.54;94758.06;5050268;28;20211;-72
2023/09/21 08:06:04;;;;;;;2.55;1.88;;;;;;;24.22;63.66;94753.38;5050739;28;20211;-73
2023/09/21 08:08:32;;;;;;;2.05;1.58;;;;;;;23.87;63.33;94744.25;5049836;28;20234;-78
2023/09/21 08:11:00;;;;;;;2.15;1.60;;;;;;;24.00;63.48;94745.31;5050491;28;20215;-77
2023/09/21 08:13:27;;;;;;;1.67;1.30;;;;;;;24.51;62.94;94738.06;5050312;28;20754;-79
2023/09/21 08:15:54;;;;;;;0.80;0.60;;;;;;;24.97;62.19;94742.25;5050401;28;20557;-78
2023/09/21 08:18:20;;;;;;;0.40;0.40;;;;;;;24.71;62.37;94746.53;5050174;28;20659;-79
2023/09/21 08:20:47;;;;;;;1.88;1.20;;;;;;;24.83;60.56;94750.72;5050148;28;20203;-77
2023/09/21 08:23:17;;;;;;;1.42;1.33;;;;;;;24.17;64.40;94762.16;5050107;28;20562;-77
2023/09/21 08:25:43;;;;;;;1.85;1.45;;;;;;;23.82;63.85;94753.00;5050407;28;20557;-77
2023/09/21 08:28:12;;;;;;;2.03;1.48;;;;;;;23.85;65.56;94763.25;5050259;28;20231;-79
2023/09/21 08:30:39;;;;;;;1.98;1.40;;;;;;;24.05;64.45;94761.47;5050072;28;20211;-78
2023/09/21 08:33:07;;;;;;;1.98;1.63;;;;;;;23.21;64.70;94763.72;5049886;28;20212;-79
2023/09/21 08:35:34;;;;;;;3.83;1.63;;;;;;;22.92;66.13;94765.09;5050192;28;20207;-78
2023/09/21 08:38:02;;;;;;;1.48;1.20;;;;;;;23.17;64.93;94774.03;5037211;28;20302;-78
2023/09/21 08:40:30;;;;;;;2.65;1.17;;;;;;;23.44;65.22;94771.47;5050450;28;20770;-78
2023/09/21 08:42:59;;;;;;;1.38;1.00;;;;;;;23.20;64.54;94770.44;5050027;28;20606;-78
2023/09/21 08:45:27;;;;;;;2.58;1.35;;;;;;;23.34;64.88;94770.34;5049820;28;20211;-77
2023/09/21 08:47:56;;;;;;;2.55;1.33;;;;;;;23.66;63.83;94767.34;5049594;28;20207;-78
2023/09/21 08:50:23;;;;;;;1.90;1.40;;;;;;;23.88;64.55;94762.44;5052809;28;20219;-78
2023/09/21 08:52:54;;;;;;;1.40;1.20;;;;;;;23.79;64.63;94759.34;5053405;28;20211;-78
2023/09/21 08:55:24;;;;;;;2.13;0.90;;;;;;;23.67;65.32;94759.84;5053864;28;20307;-76
2023/09/21 08:57:53;;;;;;;1.50;1.27;;;;;;;23.38;66.26;94757.28;5053419;28;20207;-78
2023/09/21 09:00:21;;;;;;;1.00;0.90;;;;;;;23.44;65.52;94760.41;5053422;28;20235;-78
2023/09/21 09:02:50;;;;;;;1.35;1.10;;;;;;;23.45;64.92;94766.72;5061389;28;20538;-78
2023/09/21 09:05:18;;;;;;;2.08;1.45;;;;;;;23.72;65.67;94768.50;5054256;28;20583;-74
2023/09/21 09:07:45;;;;;;;1.45;1.30;;;;;;;23.31;65.96;94754.56;5053686;28;20316;-73
2023/09/21 09:10:14;;;;;;;1.63;1.30;;;;;;;23.48;65.99;94758.41;5053752;28;20624;-73
2023/09/21 09:12:41;;;;;;;1.00;0.90;;;;;;;23.42;66.63;94750.94;5053815;28;20574;-72
2023/09/21 09:15:10;;;;;;;1.30;1.17;;;;;;;23.18;67.59;94753.47;5053692;28;20207;-73
2023/09/21 09:17:37;;;;;;;1.73;1.10;;;;;;;23.04;69.66;94753.56;5053511;28;20560;-73
2023/09/21 09:20:07;;;;;;;1.48;0.85;;;;;;;23.45;67.49;94755.66;5053623;28;20208;-73
2023/09/21 09:22:35;;;;;;;1.10;1.00;;;;;;;23.84;65.79;94750.59;5052977;28;20235;-79
2023/09/21 09:25:06;;;;;;;1.98;1.20;;;;;;;23.96;64.12;94752.06;5053444;28;20235;-73
2023/09/21 09:27:35;;;;;;;1.10;0.95;;;;;;;24.20;66.01;94753.78;5053730;28;20225;-74
2023/09/21 09:30:06;;;;;;;1.20;0.98;;;;;;;24.25;64.01;94758.91;5040257;28;20319;-73
2023/09/21 09:32:41;;;;;;;1.15;1.05;;;;;;;24.34;63.02;94750.13;5053713;28;20603;-75
2023/09/21 09:35:13;;;;;;;2.25;1.25;;;;;;;24.44;64.10;94735.38;5053810;28;20605;-73
2023/09/21 09:37:40;;;;;;;2.95;1.77;;;;;;;24.34;67.03;94739.03;5053101;28;20566;-73
2023/09/21 09:40:12;;;;;;;1.50;1.05;;;;;;;23.98;65.93;94733.88;5053020;28;20606;-73
2023/09/21 09:42:42;;;;;;;1.10;0.85;;;;;;;23.87;66.38;94738.72;5052868;28;20294;-74
2023/09/21 09:45:16;;;;;;;1.40;1.17;;;;;;;23.54;67.22;94731.13;5052999;28;20234;-74
2023/09/21 09:47:46;;;;;;;1.20;1.10;;;;;;;23.44;68.78;94731.97;5052629;28;20700;-73
2023/09/21 09:50:20;;;;;;;1.45;1.35;;;;;;;23.36;70.32;94737.56;5053014;28;20215;-73
2023/09/21 09:52:52;;;;;;;1.73;1.02;;;;;;;23.08;69.88;94726.72;5040215;28;20297;-74
2023/09/21 09:55:22;;;;;;;1.48;1.30;;;;;;;23.22;71.60;94732.13;5052804;28;20215;-74
2023/09/21 09:57:54;;;;;;;1.52;1.10;;;;;;;23.43;78.13;94735.91;5052319;28;20707;-74
2023/09/21 10:00:22;;;;;;;1.42;0.98;;;;;;;23.37;75.30;94739.09;5052108;28;20204;-85
2023/09/21 10:02:50;;;;;;;1.05;0.95;;;;;;;23.02;71.77;94744.91;5060079;28;20204;-84
2023/09/21 10:05:20;;;;;;;1.38;1.25;;;;;;;22.94;72.79;94735.09;5053210;28;20204;-83
2023/09/21 10:07:51;;;;;;;1.42;0.88;;;;;;;23.29;69.22;94737.59;5052431;28;20291;-84
2023/09/21 10:10:20;;;;;;;1.95;1.05;;;;;;;23.94;72.23;94726.78;5051822;28;20223;-84
2023/09/21 10:12:49;;;;;;;1.45;0.90;;;;;;;24.44;65.63;94727.06;5050899;28;20631;-82
2023/09/21 10:15:16;;;;;;;1.48;0.98;;;;;;;24.79;65.87;94720.28;5051197;28;20675;-79
2023/09/21 10:17:43;;;;;;;1.27;1.10;;;;;;;25.52;64.12;94716.06;5049207;28;20214;-81
2023/09/21 10:20:14;;;;;;;6.00;1.42;;;;;;;25.22;60.38;94725.25;5047803;28;20576;-81
2023/09/21 10:22:44;;;;;;;0.95;0.88;;;;;;;25.22;59.31;94726.03;5050040;28;20203;-81
2023/09/21 10:25:15;;;;;;;1.73;1.23;;;;;;;25.95;58.85;94711.38;5046792;28;20224;-81
2023/09/21 10:27:46;;;;;;;1.05;0.90;;;;;;;25.78;59.47;94706.91;5048805;28;20572;-84
2023/09/21 10:30:18;;;;;;;0.70;0.70;;;;;;;25.77;58.17;94716.44;5045238;28;20216;-79
2023/09/21 10:32:48;;;;;;;1.70;1.15;;;;;;;25.13;60.84;94711.91;5046607;28;20219;-78
2023/09/21 10:35:21;;;;;;;1.70;1.33;;;;;;;25.09;60.30;94705.63;5048083;28;20254;-80
2023/09/21 10:37:55;;;;;;;1.30;1.20;;;;;;;25.45;58.49;94703.88;5046987;28;20192;-82
2023/09/21 10:40:26;;;;;;;1.92;1.60;;;;;;;25.43;59.44;94697.16;5052287;28;20560;-79
2023/09/21 10:42:53;;;;;;;2.33;1.63;;;;;;;25.39;60.07;94702.78;5049724;28;20199;-80
2023/09/21 10:45:22;;;;;;;1.55;1.05;;;;;;;25.19;61.97;94703.88;5048879;28;20215;-82
2023/09/21 10:47:52;;;;;;;2.05;1.30;;;;;;;25.25;59.83;94697.47;5047736;28;20569;-82
2023/09/21 10:50:24;;;;;;;1.85;1.52;;;;;;;25.53;58.59;94695.44;5046234;28;20333;-82
2023/09/21 10:52:55;;;;;;;1.48;1.38;;;;;;;25.60;59.02;94692.53;5050537;28;20206;-81
2023/09/21 10:55:22;;;;;;;1.02;0.93;;;;;;;25.42;59.25;94685.28;5050139;28;20204;-77
2023/09/21 10:57:52;;;;;;;2.85;1.58;;;;;;;25.40;58.77;94682.16;5046136;28;20257;-74
2023/09/21 11:00:21;;;;;;;1.65;1.08;;;;;;;24.76;59.82;94696.94;5046113;28;20214;-73
2023/09/21 11:02:49;;;;;;;2.92;1.10;;;;;;;25.03;59.76;94696.19;5045588;28;20211;-73
2023/09/21 11:05:18;;;;;;;1.88;0.98;;;;;;;25.48;57.94;94683.59;5047382;28;20216;-73
2023/09/21 11:07:48;;;;;;;1.38;1.05;;;;;;;25.59;58.27;94675.09;5043470;28;20207;-73
2023/09/21 11:10:17;;;;;;;1.58;1.20;;;;;;;25.41;57.60;94686.50;5040406;28;20306;-75
2023/09/21 11:12:45;;;;;;;2.42;1.38;;;;;;;25.42;59.36;94679.72;5043314;28;20277;-72
2023/09/21 11:15:13;;;;;;;1.60;1.35;;;;;;;25.66;59.39;94665.91;5047188;28;20211;-72
2023/09/21 11:17:44;;;;;;;1.23;1.13;;;;;;;25.42;57.40;94663.09;5039910;28;20208;-75
2023/09/21 11:20:14;;;;;;;1.90;1.27;;;;;;;25.70;57.89;94653.50;5047269;28;20298;-72
2023/09/21 11:22:43;;;;;;;1.33;1.20;;;;;;;25.26;58.47;94651.88;5044255;28;20200;-74
2023/09/21 11:25:14;;;;;;;1.05;0.93;;;;;;;25.24;58.91;94650.75;5046104;28;20259;-74
2023/09/21 11:27:43;;;;;;;3.38;1.48;;;;;;;25.35;60.38;94645.78;5044260;28;20203;-74
2023/09/21 11:30:14;;;;;;;1.52;0.90;;;;;;;25.37;59.98;94646.94;5045381;28;20274;-73
2023/09/21 11:32:43;;;;;;;1.83;1.20;;;;;;;25.29;58.41;94645.47;5045072;28;20208;-74
2023/09/21 11:35:10;;;;;;;2.15;1.58;;;;;;;25.60;57.59;94640.59;5050857;28;20580;-75